< < Back
Terminal Aerodrome Forecast


Current Version              Previous Versions:   1  2  3  4  5  6  7  8  9  

Terminal Aerodrome Forecast

610
FTUS42 KJAX 242349
TAFGNV
TAF
KGNV 242349Z 2500/2524 05008KT P6SM SCT250
     FM250100 10005KT P6SM SCT250
     FM250900 VRB03KT P6SM SCT025
     FM251500 20011KT P6SM BKN035
     FM251800 23012G18KT P6SM VCTS SCT030CB BKN050=

Latest METAR

611
SAUS70 KWBC 251800 RRO
MTRGNV
METAR KGNV 251753Z 23016G22KT 200V260 10SM SCT036 BKN060 OVC075 28/21
A2986 RMK AO2 SLP111 60000 T02830206 10283 20194 56029 $


USA.gov is the U.S. government's official web portal to all federal, state and local government web resources and services.